sensor_id;sensor_type;location;lat;lon;timestamp;P1;durP1;ratioP1;P2;durP2;ratioP2
53519;SDS011;39397;53.204;5.778;2022-09-16T00:00:30;4.30;;;0.73;;
53519;SDS011;39397;53.204;5.778;2022-09-16T00:02:56;3.95;;;0.65;;
53519;SDS011;39397;53.204;5.778;2022-09-16T00:05:23;3.15;;;0.50;;
53519;SDS011;39397;53.204;5.778;2022-09-16T00:07:49;2.95;;;0.52;;
53519;SDS011;39397;53.204;5.778;2022-09-16T00:10:15;2.75;;;0.52;;
53519;SDS011;39397;53.204;5.778;2022-09-16T00:12:41;2.28;;;0.93;;
53519;SDS011;39397;53.204;5.778;2022-09-16T00:15:07;2.33;;;0.50;;
53519;SDS011;39397;53.204;5.778;2022-09-16T00:17:33;2.08;;;0.40;;
53519;SDS011;39397;53.204;5.778;2022-09-16T00:19:59;4.70;;;0.70;;
53519;SDS011;39397;53.204;5.778;2022-09-16T00:22:26;3.83;;;0.60;;
53519;SDS011;39397;53.204;5.778;2022-09-16T00:24:52;4.28;;;0.82;;
53519;SDS011;39397;53.204;5.778;2022-09-16T00:27:18;3.03;;;0.70;;
53519;SDS011;39397;53.204;5.778;2022-09-16T00:29:44;2.85;;;0.60;;
53519;SDS011;39397;53.204;5.778;2022-09-16T00:32:10;3.22;;;0.55;;
53519;SDS011;39397;53.204;5.778;2022-09-16T00:34:36;1.40;;;0.38;;
53519;SDS011;39397;53.204;5.778;2022-09-16T00:37:01;3.20;;;0.50;;
53519;SDS011;39397;53.204;5.778;2022-09-16T00:39:28;1.55;;;0.35;;
53519;SDS011;39397;53.204;5.778;2022-09-16T00:41:54;4.03;;;0.50;;
53519;SDS011;39397;53.204;5.778;2022-09-16T00:47:58;3.03;;;0.70;;
53519;SDS011;39397;53.204;5.778;2022-09-16T00:50:27;3.33;;;0.63;;
53519;SDS011;39397;53.204;5.778;2022-09-16T00:52:55;1.73;;;0.52;;
53519;SDS011;39397;53.204;5.778;2022-09-16T00:55:23;2.97;;;0.70;;
53519;SDS011;39397;53.204;5.778;2022-09-16T00:57:51;2.08;;;0.45;;
53519;SDS011;39397;53.204;5.778;2022-09-16T01:00:21;4.95;;;0.70;;
53519;SDS011;39397;53.204;5.778;2022-09-16T01:02:47;2.78;;;0.60;;
53519;SDS011;39397;53.204;5.778;2022-09-16T01:05:15;3.58;;;0.57;;
53519;SDS011;39397;53.204;5.778;2022-09-16T01:07:45;2.83;;;0.40;;
53519;SDS011;39397;53.204;5.778;2022-09-16T01:10:16;3.50;;;0.75;;
53519;SDS011;39397;53.204;5.778;2022-09-16T01:12:45;3.13;;;0.70;;
53519;SDS011;39397;53.204;5.778;2022-09-16T01:15:14;3.78;;;0.50;;
53519;SDS011;39397;53.204;5.778;2022-09-16T01:20:55;1.95;;;0.55;;
53519;SDS011;39397;53.204;5.778;2022-09-16T01:23:53;2.72;;;0.55;;
53519;SDS011;39397;53.204;5.778;2022-09-16T01:45:29;2.95;;;0.60;;
53519;SDS011;39397;53.204;5.778;2022-09-16T01:58:58;5.70;;;0.80;;
53519;SDS011;39397;53.204;5.778;2022-09-16T02:04:14;4.35;;;0.75;;
53519;SDS011;39397;53.204;5.778;2022-09-16T02:06:43;2.63;;;0.47;;
53519;SDS011;39397;53.204;5.778;2022-09-16T02:09:18;2.47;;;0.40;;
53519;SDS011;39397;53.204;5.778;2022-09-16T02:11:48;3.95;;;0.60;;
53519;SDS011;39397;53.204;5.778;2022-09-16T02:14:20;2.15;;;0.40;;
53519;SDS011;39397;53.204;5.778;2022-09-16T02:16:57;3.50;;;0.65;;
53519;SDS011;39397;53.204;5.778;2022-09-16T02:19:34;3.22;;;0.55;;
53519;SDS011;39397;53.204;5.778;2022-09-16T02:22:07;5.93;;;0.90;;
53519;SDS011;39397;53.204;5.778;2022-09-16T02:24:37;2.55;;;0.60;;
53519;SDS011;39397;53.204;5.778;2022-09-16T02:27:06;4.30;;;0.88;;
53519;SDS011;39397;53.204;5.778;2022-09-16T02:29:40;1.33;;;0.43;;
53519;SDS011;39397;53.204;5.778;2022-09-16T02:32:09;5.10;;;0.88;;
53519;SDS011;39397;53.204;5.778;2022-09-16T02:34:42;5.43;;;0.90;;
53519;SDS011;39397;53.204;5.778;2022-09-16T02:37:17;4.47;;;0.93;;
53519;SDS011;39397;53.204;5.778;2022-09-16T02:39:49;4.22;;;0.98;;
53519;SDS011;39397;53.204;5.778;2022-09-16T02:42:21;4.18;;;0.60;;
53519;SDS011;39397;53.204;5.778;2022-09-16T02:44:47;5.25;;;1.00;;
53519;SDS011;39397;53.204;5.778;2022-09-16T02:47:38;4.53;;;0.90;;
53519;SDS011;39397;53.204;5.778;2022-09-16T02:50:09;4.78;;;0.90;;
53519;SDS011;39397;53.204;5.778;2022-09-16T02:52:43;5.03;;;0.68;;
53519;SDS011;39397;53.204;5.778;2022-09-16T02:57:55;6.28;;;0.95;;
53519;SDS011;39397;53.204;5.778;2022-09-16T03:00:21;5.25;;;0.80;;
53519;SDS011;39397;53.204;5.778;2022-09-16T03:02:47;5.75;;;1.05;;
53519;SDS011;39397;53.204;5.778;2022-09-16T03:05:13;4.53;;;0.75;;
53519;SDS011;39397;53.204;5.778;2022-09-16T03:07:39;6.35;;;1.20;;
53519;SDS011;39397;53.204;5.778;2022-09-16T03:10:08;4.38;;;0.70;;
53519;SDS011;39397;53.204;5.778;2022-09-16T03:23:51;5.45;;;0.80;;
53519;SDS011;39397;53.204;5.778;2022-09-16T03:31:54;3.78;;;1.00;;
53519;SDS011;39397;53.204;5.778;2022-09-16T03:36:53;4.40;;;0.88;;
53519;SDS011;39397;53.204;5.778;2022-09-16T03:39:24;3.17;;;0.70;;
53519;SDS011;39397;53.204;5.778;2022-09-16T03:41:50;7.28;;;1.20;;
53519;SDS011;39397;53.204;5.778;2022-09-16T03:44:17;8.45;;;0.95;;
53519;SDS011;39397;53.204;5.778;2022-09-16T03:46:43;7.43;;;1.00;;
53519;SDS011;39397;53.204;5.778;2022-09-16T03:49:09;5.97;;;1.00;;
53519;SDS011;39397;53.204;5.778;2022-09-16T03:51:35;6.15;;;1.08;;
53519;SDS011;39397;53.204;5.778;2022-09-16T03:54:00;4.97;;;0.90;;
53519;SDS011;39397;53.204;5.778;2022-09-16T03:56:26;5.53;;;0.95;;
53519;SDS011;39397;53.204;5.778;2022-09-16T03:58:52;4.88;;;0.80;;
53519;SDS011;39397;53.204;5.778;2022-09-16T04:01:17;5.95;;;1.38;;
53519;SDS011;39397;53.204;5.778;2022-09-16T04:03:43;8.07;;;1.20;;
53519;SDS011;39397;53.204;5.778;2022-09-16T04:06:09;5.55;;;1.65;;
53519;SDS011;39397;53.204;5.778;2022-09-16T04:08:34;6.25;;;1.13;;
53519;SDS011;39397;53.204;5.778;2022-09-16T04:11:02;6.28;;;1.10;;
53519;SDS011;39397;53.204;5.778;2022-09-16T04:13:30;7.43;;;1.15;;
53519;SDS011;39397;53.204;5.778;2022-09-16T04:15:57;4.88;;;1.10;;
53519;SDS011;39397;53.204;5.778;2022-09-16T04:18:23;4.85;;;1.23;;
53519;SDS011;39397;53.204;5.778;2022-09-16T04:20:49;8.13;;;0.95;;
53519;SDS011;39397;53.204;5.778;2022-09-16T04:23:19;6.10;;;0.93;;
53519;SDS011;39397;53.204;5.778;2022-09-16T04:25:52;4.43;;;0.85;;
53519;SDS011;39397;53.204;5.778;2022-09-16T04:28:22;2.22;;;0.73;;
53519;SDS011;39397;53.204;5.778;2022-09-16T04:30:48;5.88;;;0.80;;
53519;SDS011;39397;53.204;5.778;2022-09-16T04:33:14;4.47;;;1.13;;
53519;SDS011;39397;53.204;5.778;2022-09-16T04:35:40;3.83;;;0.90;;
53519;SDS011;39397;53.204;5.778;2022-09-16T04:38:06;4.65;;;1.00;;
53519;SDS011;39397;53.204;5.778;2022-09-16T04:40:31;5.30;;;1.33;;
53519;SDS011;39397;53.204;5.778;2022-09-16T04:42:57;7.10;;;1.20;;
53519;SDS011;39397;53.204;5.778;2022-09-16T04:45:23;7.60;;;1.17;;
53519;SDS011;39397;53.204;5.778;2022-09-16T04:47:54;6.15;;;0.95;;
53519;SDS011;39397;53.204;5.778;2022-09-16T04:50:21;7.93;;;1.00;;
53519;SDS011;39397;53.204;5.778;2022-09-16T04:52:47;4.78;;;0.90;;
53519;SDS011;39397;53.204;5.778;2022-09-16T04:55:13;7.63;;;1.13;;
53519;SDS011;39397;53.204;5.778;2022-09-16T04:57:38;5.57;;;1.10;;
53519;SDS011;39397;53.204;5.778;2022-09-16T05:00:06;3.67;;;0.82;;
53519;SDS011;39397;53.204;5.778;2022-09-16T05:02:32;5.72;;;1.17;;
53519;SDS011;39397;53.204;5.778;2022-09-16T05:04:58;7.57;;;1.08;;
53519;SDS011;39397;53.204;5.778;2022-09-16T05:07:23;9.32;;;2.00;;
53519;SDS011;39397;53.204;5.778;2022-09-16T05:09:49;5.68;;;1.05;;
53519;SDS011;39397;53.204;5.778;2022-09-16T05:12:15;8.02;;;1.23;;
53519;SDS011;39397;53.204;5.778;2022-09-16T05:14:40;6.18;;;1.05;;
53519;SDS011;39397;53.204;5.778;2022-09-16T05:17:06;8.27;;;1.45;;
53519;SDS011;39397;53.204;5.778;2022-09-16T05:19:32;5.25;;;0.95;;
53519;SDS011;39397;53.204;5.778;2022-09-16T05:22:01;9.18;;;1.35;;
53519;SDS011;39397;53.204;5.778;2022-09-16T05:24:32;4.85;;;0.95;;
53519;SDS011;39397;53.204;5.778;2022-09-16T05:27:00;8.82;;;2.20;;
53519;SDS011;39397;53.204;5.778;2022-09-16T05:29:27;6.68;;;1.15;;
53519;SDS011;39397;53.204;5.778;2022-09-16T05:31:53;6.60;;;1.13;;
53519;SDS011;39397;53.204;5.778;2022-09-16T05:34:19;5.43;;;0.95;;
53519;SDS011;39397;53.204;5.778;2022-09-16T05:36:47;6.50;;;1.08;;
53519;SDS011;39397;53.204;5.778;2022-09-16T05:39:15;5.32;;;1.23;;
53519;SDS011;39397;53.204;5.778;2022-09-16T05:41:45;3.72;;;0.85;;
53519;SDS011;39397;53.204;5.778;2022-09-16T05:44:11;5.85;;;0.95;;
53519;SDS011;39397;53.204;5.778;2022-09-16T05:46:37;6.75;;;1.10;;
53519;SDS011;39397;53.204;5.778;2022-09-16T05:49:07;5.45;;;1.02;;
53519;SDS011;39397;53.204;5.778;2022-09-16T05:51:35;5.50;;;1.05;;
53519;SDS011;39397;53.204;5.778;2022-09-16T05:54:02;6.97;;;1.42;;
53519;SDS011;39397;53.204;5.778;2022-09-16T05:56:28;6.63;;;1.17;;
53519;SDS011;39397;53.204;5.778;2022-09-16T05:58:56;6.40;;;1.15;;
53519;SDS011;39397;53.204;5.778;2022-09-16T06:01:23;5.07;;;1.23;;
53519;SDS011;39397;53.204;5.778;2022-09-16T06:03:51;8.38;;;1.50;;
53519;SDS011;39397;53.204;5.778;2022-09-16T06:08:50;8.52;;;1.13;;
53519;SDS011;39397;53.204;5.778;2022-09-16T06:11:18;5.95;;;1.00;;
53519;SDS011;39397;53.204;5.778;2022-09-16T06:13:44;4.50;;;1.02;;
53519;SDS011;39397;53.204;5.778;2022-09-16T06:16:09;6.43;;;1.80;;
53519;SDS011;39397;53.204;5.778;2022-09-16T06:18:36;7.40;;;1.58;;
53519;SDS011;39397;53.204;5.778;2022-09-16T06:21:05;5.88;;;1.13;;
53519;SDS011;39397;53.204;5.778;2022-09-16T06:23:34;12.10;;;2.33;;
53519;SDS011;39397;53.204;5.778;2022-09-16T06:26:01;8.38;;;1.20;;
53519;SDS011;39397;53.204;5.778;2022-09-16T06:28:32;7.00;;;1.27;;
53519;SDS011;39397;53.204;5.778;2022-09-16T06:31:07;6.55;;;1.52;;
53519;SDS011;39397;53.204;5.778;2022-09-16T06:33:38;7.43;;;1.55;;
53519;SDS011;39397;53.204;5.778;2022-09-16T06:36:05;7.60;;;1.48;;
53519;SDS011;39397;53.204;5.778;2022-09-16T06:38:32;8.98;;;1.55;;
53519;SDS011;39397;53.204;5.778;2022-09-16T06:40:59;7.90;;;1.17;;
53519;SDS011;39397;53.204;5.778;2022-09-16T06:43:26;9.10;;;1.30;;
53519;SDS011;39397;53.204;5.778;2022-09-16T06:45:58;6.70;;;1.25;;
53519;SDS011;39397;53.204;5.778;2022-09-16T06:48:26;8.68;;;1.25;;
53519;SDS011;39397;53.204;5.778;2022-09-16T06:50:56;5.28;;;0.88;;
53519;SDS011;39397;53.204;5.778;2022-09-16T06:53:26;8.50;;;1.17;;
53519;SDS011;39397;53.204;5.778;2022-09-16T06:55:52;9.18;;;1.40;;
53519;SDS011;39397;53.204;5.778;2022-09-16T06:58:18;7.47;;;1.33;;
53519;SDS011;39397;53.204;5.778;2022-09-16T07:00:43;4.15;;;1.17;;
53519;SDS011;39397;53.204;5.778;2022-09-16T07:03:09;10.80;;;1.60;;
53519;SDS011;39397;53.204;5.778;2022-09-16T07:05:35;9.68;;;1.95;;
53519;SDS011;39397;53.204;5.778;2022-09-16T07:08:00;7.78;;;1.52;;
53519;SDS011;39397;53.204;5.778;2022-09-16T07:10:26;5.88;;;1.25;;
53519;SDS011;39397;53.204;5.778;2022-09-16T07:12:52;6.75;;;1.20;;
53519;SDS011;39397;53.204;5.778;2022-09-16T07:15:18;7.47;;;1.42;;
53519;SDS011;39397;53.204;5.778;2022-09-16T07:17:43;9.40;;;1.42;;
53519;SDS011;39397;53.204;5.778;2022-09-16T07:20:09;6.97;;;1.23;;
53519;SDS011;39397;53.204;5.778;2022-09-16T07:22:35;8.00;;;1.30;;
53519;SDS011;39397;53.204;5.778;2022-09-16T07:25:02;8.43;;;1.50;;
53519;SDS011;39397;53.204;5.778;2022-09-16T07:27:28;7.53;;;1.55;;
53519;SDS011;39397;53.204;5.778;2022-09-16T07:29:55;8.85;;;1.98;;
53519;SDS011;39397;53.204;5.778;2022-09-16T07:32:20;6.60;;;1.30;;
53519;SDS011;39397;53.204;5.778;2022-09-16T07:34:46;6.60;;;1.30;;
53519;SDS011;39397;53.204;5.778;2022-09-16T07:37:12;8.50;;;1.23;;
53519;SDS011;39397;53.204;5.778;2022-09-16T07:39:38;7.47;;;1.35;;
53519;SDS011;39397;53.204;5.778;2022-09-16T07:42:04;11.18;;;1.60;;
53519;SDS011;39397;53.204;5.778;2022-09-16T07:44:31;11.25;;;2.45;;
53519;SDS011;39397;53.204;5.778;2022-09-16T07:46:56;9.70;;;1.48;;
53519;SDS011;39397;53.204;5.778;2022-09-16T07:49:22;8.40;;;1.10;;
53519;SDS011;39397;53.204;5.778;2022-09-16T07:51:48;9.52;;;1.70;;
53519;SDS011;39397;53.204;5.778;2022-09-16T07:54:14;7.85;;;1.77;;
53519;SDS011;39397;53.204;5.778;2022-09-16T07:56:42;8.85;;;1.77;;
53519;SDS011;39397;53.204;5.778;2022-09-16T07:59:15;8.77;;;1.83;;
53519;SDS011;39397;53.204;5.778;2022-09-16T08:01:43;6.63;;;1.25;;
53519;SDS011;39397;53.204;5.778;2022-09-16T08:04:09;6.30;;;1.27;;
53519;SDS011;39397;53.204;5.778;2022-09-16T08:06:36;5.82;;;1.42;;
53519;SDS011;39397;53.204;5.778;2022-09-16T08:09:03;8.18;;;1.90;;
53519;SDS011;39397;53.204;5.778;2022-09-16T08:11:29;7.55;;;1.60;;
53519;SDS011;39397;53.204;5.778;2022-09-16T08:13:56;8.45;;;1.38;;
53519;SDS011;39397;53.204;5.778;2022-09-16T08:16:23;10.27;;;1.50;;
53519;SDS011;39397;53.204;5.778;2022-09-16T08:18:50;5.75;;;1.25;;
53519;SDS011;39397;53.204;5.778;2022-09-16T08:21:20;7.72;;;1.40;;
53519;SDS011;39397;53.204;5.778;2022-09-16T08:23:48;6.20;;;1.35;;
53519;SDS011;39397;53.204;5.778;2022-09-16T08:26:15;7.05;;;1.30;;
53519;SDS011;39397;53.204;5.778;2022-09-16T08:28:44;8.32;;;1.38;;
53519;SDS011;39397;53.204;5.778;2022-09-16T08:31:10;8.15;;;1.40;;
53519;SDS011;39397;53.204;5.778;2022-09-16T08:33:39;6.13;;;1.27;;
53519;SDS011;39397;53.204;5.778;2022-09-16T08:36:07;6.30;;;1.30;;
53519;SDS011;39397;53.204;5.778;2022-09-16T08:38:45;5.15;;;1.10;;
53519;SDS011;39397;53.204;5.778;2022-09-16T08:44:00;7.85;;;1.27;;
53519;SDS011;39397;53.204;5.778;2022-09-16T08:51:53;8.25;;;1.85;;
53519;SDS011;39397;53.204;5.778;2022-09-16T08:54:31;8.30;;;1.88;;
53519;SDS011;39397;53.204;5.778;2022-09-16T08:57:05;6.78;;;1.20;;
53519;SDS011;39397;53.204;5.778;2022-09-16T08:59:38;9.57;;;1.17;;
53519;SDS011;39397;53.204;5.778;2022-09-16T09:04:54;7.38;;;1.10;;
53519;SDS011;39397;53.204;5.778;2022-09-16T09:12:37;6.85;;;1.50;;
53519;SDS011;39397;53.204;5.778;2022-09-16T09:15:10;7.38;;;1.00;;
53519;SDS011;39397;53.204;5.778;2022-09-16T09:23:43;10.07;;;1.45;;
53519;SDS011;39397;53.204;5.778;2022-09-16T09:39:26;7.40;;;1.15;;
53519;SDS011;39397;53.204;5.778;2022-09-16T09:41:57;5.60;;;1.33;;
53519;SDS011;39397;53.204;5.778;2022-09-16T09:44:57;9.27;;;1.60;;
53519;SDS011;39397;53.204;5.778;2022-09-16T09:50:36;7.90;;;1.40;;
53519;SDS011;39397;53.204;5.778;2022-09-16T09:53:27;10.52;;;1.50;;
53519;SDS011;39397;53.204;5.778;2022-09-16T10:01:18;8.93;;;1.45;;
53519;SDS011;39397;53.204;5.778;2022-09-16T10:03:46;8.77;;;1.20;;
53519;SDS011;39397;53.204;5.778;2022-09-16T10:06:14;10.07;;;2.10;;
53519;SDS011;39397;53.204;5.778;2022-09-16T10:08:43;6.28;;;1.13;;
53519;SDS011;39397;53.204;5.778;2022-09-16T10:11:17;6.65;;;1.58;;
53519;SDS011;39397;53.204;5.778;2022-09-16T10:13:48;6.85;;;1.15;;
53519;SDS011;39397;53.204;5.778;2022-09-16T10:16:19;7.40;;;1.33;;
53519;SDS011;39397;53.204;5.778;2022-09-16T10:18:56;6.40;;;1.33;;
53519;SDS011;39397;53.204;5.778;2022-09-16T10:21:42;7.60;;;1.25;;
53519;SDS011;39397;53.204;5.778;2022-09-16T10:26:52;7.03;;;1.40;;
53519;SDS011;39397;53.204;5.778;2022-09-16T10:29:17;9.80;;;1.30;;
53519;SDS011;39397;53.204;5.778;2022-09-16T10:31:43;7.20;;;1.55;;
53519;SDS011;39397;53.204;5.778;2022-09-16T10:34:14;12.15;;;1.73;;
53519;SDS011;39397;53.204;5.778;2022-09-16T10:36:56;5.78;;;1.10;;
53519;SDS011;39397;53.204;5.778;2022-09-16T10:39:29;7.40;;;1.50;;
53519;SDS011;39397;53.204;5.778;2022-09-16T10:41:56;10.13;;;2.10;;
53519;SDS011;39397;53.204;5.778;2022-09-16T10:44:24;8.45;;;1.40;;
53519;SDS011;39397;53.204;5.778;2022-09-16T10:46:56;10.77;;;1.42;;
53519;SDS011;39397;53.204;5.778;2022-09-16T10:49:27;8.45;;;1.85;;
53519;SDS011;39397;53.204;5.778;2022-09-16T10:52:23;7.57;;;1.20;;
53519;SDS011;39397;53.204;5.778;2022-09-16T10:54:50;9.93;;;1.55;;
53519;SDS011;39397;53.204;5.778;2022-09-16T10:57:27;9.02;;;1.80;;
53519;SDS011;39397;53.204;5.778;2022-09-16T11:10:58;10.70;;;1.50;;
53519;SDS011;39397;53.204;5.778;2022-09-16T11:14:02;6.30;;;1.13;;
53519;SDS011;39397;53.204;5.778;2022-09-16T11:19:29;9.85;;;1.90;;
53519;SDS011;39397;53.204;5.778;2022-09-16T11:25:00;9.18;;;1.40;;
53519;SDS011;39397;53.204;5.778;2022-09-16T11:30:34;5.70;;;1.08;;
53519;SDS011;39397;53.204;5.778;2022-09-16T11:33:24;9.00;;;1.30;;
53519;SDS011;39397;53.204;5.778;2022-09-16T11:41:57;8.32;;;1.80;;
53519;SDS011;39397;53.204;5.778;2022-09-16T11:44:47;6.10;;;1.50;;
53519;SDS011;39397;53.204;5.778;2022-09-16T11:58:49;7.85;;;1.70;;
53519;SDS011;39397;53.204;5.778;2022-09-16T12:01:41;8.05;;;2.65;;
53519;SDS011;39397;53.204;5.778;2022-09-16T12:04:38;8.38;;;1.77;;
53519;SDS011;39397;53.204;5.778;2022-09-16T12:07:21;9.48;;;1.77;;
53519;SDS011;39397;53.204;5.778;2022-09-16T12:10:46;8.07;;;1.42;;
53519;SDS011;39397;53.204;5.778;2022-09-16T12:13:04;8.90;;;2.20;;
53519;SDS011;39397;53.204;5.778;2022-09-16T12:15:41;6.70;;;1.85;;
53519;SDS011;39397;53.204;5.778;2022-09-16T12:18:34;10.55;;;2.33;;
53519;SDS011;39397;53.204;5.778;2022-09-16T12:21:11;9.48;;;1.70;;
53519;SDS011;39397;53.204;5.778;2022-09-16T12:23:48;11.27;;;2.30;;
53519;SDS011;39397;53.204;5.778;2022-09-16T12:26:19;13.95;;;2.33;;
53519;SDS011;39397;53.204;5.778;2022-09-16T12:34:00;9.85;;;2.22;;
53519;SDS011;39397;53.204;5.778;2022-09-16T12:36:48;12.25;;;2.30;;
53519;SDS011;39397;53.204;5.778;2022-09-16T12:39:21;13.65;;;2.33;;
53519;SDS011;39397;53.204;5.778;2022-09-16T12:58:46;10.23;;;1.85;;
53519;SDS011;39397;53.204;5.778;2022-09-16T13:01:45;8.15;;;1.85;;
53519;SDS011;39397;53.204;5.778;2022-09-16T13:06:51;8.10;;;1.80;;
53519;SDS011;39397;53.204;5.778;2022-09-16T13:11:56;14.90;;;2.03;;
53519;SDS011;39397;53.204;5.778;2022-09-16T13:14:35;8.70;;;1.67;;
53519;SDS011;39397;53.204;5.778;2022-09-16T13:17:11;9.48;;;2.35;;
53519;SDS011;39397;53.204;5.778;2022-09-16T13:19:44;8.48;;;2.13;;
53519;SDS011;39397;53.204;5.778;2022-09-16T13:22:28;10.18;;;1.70;;
53519;SDS011;39397;53.204;5.778;2022-09-16T13:25:17;15.15;;;2.35;;
53519;SDS011;39397;53.204;5.778;2022-09-16T13:27:53;11.75;;;1.77;;
53519;SDS011;39397;53.204;5.778;2022-09-16T13:30:42;13.45;;;2.42;;
53519;SDS011;39397;53.204;5.778;2022-09-16T13:35:35;10.02;;;1.90;;
53519;SDS011;39397;53.204;5.778;2022-09-16T13:38:20;10.57;;;2.15;;
53519;SDS011;39397;53.204;5.778;2022-09-16T13:40:51;12.93;;;2.50;;
53519;SDS011;39397;53.204;5.778;2022-09-16T13:43:27;9.02;;;1.80;;
53519;SDS011;39397;53.204;5.778;2022-09-16T13:46:11;12.93;;;2.08;;
53519;SDS011;39397;53.204;5.778;2022-09-16T13:51:45;11.55;;;2.50;;
53519;SDS011;39397;53.204;5.778;2022-09-16T13:54:22;10.43;;;2.47;;
53519;SDS011;39397;53.204;5.778;2022-09-16T14:05:25;7.53;;;1.60;;
53519;SDS011;39397;53.204;5.778;2022-09-16T14:08:26;6.78;;;1.50;;
53519;SDS011;39397;53.204;5.778;2022-09-16T14:11:20;9.20;;;1.65;;
53519;SDS011;39397;53.204;5.778;2022-09-16T14:13:56;13.65;;;2.75;;
53519;SDS011;39397;53.204;5.778;2022-09-16T14:16:28;12.50;;;2.10;;
53519;SDS011;39397;53.204;5.778;2022-09-16T14:19:04;10.90;;;1.83;;
53519;SDS011;39397;53.204;5.778;2022-09-16T14:21:46;12.55;;;2.08;;
53519;SDS011;39397;53.204;5.778;2022-09-16T14:24:32;11.70;;;1.95;;
53519;SDS011;39397;53.204;5.778;2022-09-16T14:27:00;12.77;;;2.20;;
53519;SDS011;39397;53.204;5.778;2022-09-16T14:29:26;9.07;;;1.90;;
53519;SDS011;39397;53.204;5.778;2022-09-16T14:31:52;13.65;;;2.88;;
53519;SDS011;39397;53.204;5.778;2022-09-16T14:34:34;13.07;;;2.10;;
53519;SDS011;39397;53.204;5.778;2022-09-16T14:37:02;8.43;;;1.88;;
53519;SDS011;39397;53.204;5.778;2022-09-16T14:39:29;7.63;;;1.75;;
53519;SDS011;39397;53.204;5.778;2022-09-16T14:44:45;10.75;;;2.13;;
53519;SDS011;39397;53.204;5.778;2022-09-16T14:47:20;7.75;;;1.73;;
53519;SDS011;39397;53.204;5.778;2022-09-16T14:49:47;11.43;;;2.03;;
53519;SDS011;39397;53.204;5.778;2022-09-16T14:52:19;9.65;;;1.80;;
53519;SDS011;39397;53.204;5.778;2022-09-16T14:54:50;9.27;;;1.85;;
53519;SDS011;39397;53.204;5.778;2022-09-16T14:57:18;8.25;;;2.10;;
53519;SDS011;39397;53.204;5.778;2022-09-16T14:59:47;9.75;;;2.08;;
53519;SDS011;39397;53.204;5.778;2022-09-16T15:02:30;8.80;;;1.60;;
53519;SDS011;39397;53.204;5.778;2022-09-16T15:05:22;10.88;;;1.70;;
53519;SDS011;39397;53.204;5.778;2022-09-16T15:08:06;9.73;;;1.60;;
53519;SDS011;39397;53.204;5.778;2022-09-16T15:10:52;7.82;;;1.58;;
53519;SDS011;39397;53.204;5.778;2022-09-16T15:13:27;7.93;;;1.40;;
53519;SDS011;39397;53.204;5.778;2022-09-16T15:16:02;7.88;;;1.48;;
53519;SDS011;39397;53.204;5.778;2022-09-16T15:18:41;9.32;;;1.70;;
53519;SDS011;39397;53.204;5.778;2022-09-16T15:21:17;9.80;;;1.65;;
53519;SDS011;39397;53.204;5.778;2022-09-16T15:23:46;7.05;;;1.92;;
53519;SDS011;39397;53.204;5.778;2022-09-16T15:26:16;6.80;;;1.70;;
53519;SDS011;39397;53.204;5.778;2022-09-16T15:29:03;10.10;;;1.83;;
53519;SDS011;39397;53.204;5.778;2022-09-16T15:34:25;7.70;;;1.30;;
53519;SDS011;39397;53.204;5.778;2022-09-16T15:36:51;8.85;;;1.20;;
53519;SDS011;39397;53.204;5.778;2022-09-16T15:39:31;11.93;;;1.85;;
53519;SDS011;39397;53.204;5.778;2022-09-16T15:44:54;5.93;;;1.35;;
53519;SDS011;39397;53.204;5.778;2022-09-16T15:50:04;8.27;;;1.48;;
53519;SDS011;39397;53.204;5.778;2022-09-16T15:52:47;8.40;;;1.40;;
53519;SDS011;39397;53.204;5.778;2022-09-16T15:55:34;8.77;;;1.48;;
53519;SDS011;39397;53.204;5.778;2022-09-16T15:58:17;6.72;;;1.55;;
53519;SDS011;39397;53.204;5.778;2022-09-16T16:01:03;8.52;;;1.63;;
53519;SDS011;39397;53.204;5.778;2022-09-16T16:03:44;9.80;;;1.67;;
53519;SDS011;39397;53.204;5.778;2022-09-16T16:11:54;8.98;;;1.48;;
53519;SDS011;39397;53.204;5.778;2022-09-16T16:14:26;11.27;;;1.77;;
53519;SDS011;39397;53.204;5.778;2022-09-16T16:17:06;10.55;;;1.92;;
53519;SDS011;39397;53.204;5.778;2022-09-16T16:19:43;10.07;;;1.63;;
53519;SDS011;39397;53.204;5.778;2022-09-16T16:22:10;9.40;;;1.52;;
53519;SDS011;39397;53.204;5.778;2022-09-16T16:24:36;10.50;;;1.50;;
53519;SDS011;39397;53.204;5.778;2022-09-16T16:27:02;9.98;;;1.80;;
53519;SDS011;39397;53.204;5.778;2022-09-16T16:29:28;9.13;;;1.75;;
53519;SDS011;39397;53.204;5.778;2022-09-16T16:34:26;6.90;;;1.83;;
53519;SDS011;39397;53.204;5.778;2022-09-16T16:36:53;12.10;;;1.65;;
53519;SDS011;39397;53.204;5.778;2022-09-16T16:39:19;9.45;;;1.60;;
53519;SDS011;39397;53.204;5.778;2022-09-16T16:41:45;6.55;;;1.50;;
53519;SDS011;39397;53.204;5.778;2022-09-16T16:44:10;8.68;;;1.55;;
53519;SDS011;39397;53.204;5.778;2022-09-16T16:46:36;6.78;;;1.52;;
53519;SDS011;39397;53.204;5.778;2022-09-16T16:49:01;9.38;;;1.42;;
53519;SDS011;39397;53.204;5.778;2022-09-16T16:51:27;6.60;;;1.52;;
53519;SDS011;39397;53.204;5.778;2022-09-16T16:53:53;11.38;;;1.92;;
53519;SDS011;39397;53.204;5.778;2022-09-16T16:56:19;6.80;;;1.67;;
53519;SDS011;39397;53.204;5.778;2022-09-16T16:58:44;6.93;;;1.23;;
53519;SDS011;39397;53.204;5.778;2022-09-16T17:03:41;8.70;;;1.63;;
53519;SDS011;39397;53.204;5.778;2022-09-16T17:06:09;8.00;;;1.45;;
53519;SDS011;39397;53.204;5.778;2022-09-16T17:08:35;8.20;;;1.30;;
53519;SDS011;39397;53.204;5.778;2022-09-16T17:13:30;7.18;;;1.17;;
53519;SDS011;39397;53.204;5.778;2022-09-16T17:15:56;7.20;;;1.35;;
53519;SDS011;39397;53.204;5.778;2022-09-16T17:18:22;8.13;;;1.20;;
53519;SDS011;39397;53.204;5.778;2022-09-16T17:20:48;9.00;;;1.33;;
53519;SDS011;39397;53.204;5.778;2022-09-16T17:23:14;8.07;;;1.92;;
53519;SDS011;39397;53.204;5.778;2022-09-16T17:25:40;9.55;;;1.50;;
53519;SDS011;39397;53.204;5.778;2022-09-16T17:28:05;7.90;;;1.33;;
53519;SDS011;39397;53.204;5.778;2022-09-16T17:30:31;10.88;;;1.90;;
53519;SDS011;39397;53.204;5.778;2022-09-16T17:32:57;8.85;;;2.10;;
53519;SDS011;39397;53.204;5.778;2022-09-16T17:35:23;5.50;;;1.30;;
53519;SDS011;39397;53.204;5.778;2022-09-16T17:37:48;7.78;;;1.30;;
53519;SDS011;39397;53.204;5.778;2022-09-16T17:40:14;6.60;;;1.20;;
53519;SDS011;39397;53.204;5.778;2022-09-16T17:42:40;7.53;;;1.23;;
53519;SDS011;39397;53.204;5.778;2022-09-16T17:45:06;9.13;;;1.45;;
53519;SDS011;39397;53.204;5.778;2022-09-16T17:47:32;7.50;;;1.23;;
53519;SDS011;39397;53.204;5.778;2022-09-16T17:49:58;6.78;;;1.20;;
53519;SDS011;39397;53.204;5.778;2022-09-16T17:52:28;8.90;;;1.45;;
53519;SDS011;39397;53.204;5.778;2022-09-16T17:54:54;5.65;;;0.90;;
53519;SDS011;39397;53.204;5.778;2022-09-16T17:57:19;4.45;;;1.23;;
53519;SDS011;39397;53.204;5.778;2022-09-16T17:59:46;6.95;;;1.48;;
53519;SDS011;39397;53.204;5.778;2022-09-16T18:02:12;11.43;;;1.77;;
53519;SDS011;39397;53.204;5.778;2022-09-16T18:04:40;12.38;;;2.22;;
53519;SDS011;39397;53.204;5.778;2022-09-16T18:07:07;11.70;;;1.60;;
53519;SDS011;39397;53.204;5.778;2022-09-16T18:09:33;8.32;;;1.73;;
53519;SDS011;39397;53.204;5.778;2022-09-16T18:11:59;11.93;;;1.80;;
53519;SDS011;39397;53.204;5.778;2022-09-16T18:14:24;9.07;;;2.08;;
53519;SDS011;39397;53.204;5.778;2022-09-16T18:16:50;7.85;;;1.63;;
53519;SDS011;39397;53.204;5.778;2022-09-16T18:19:16;7.07;;;1.67;;
53519;SDS011;39397;53.204;5.778;2022-09-16T18:21:41;10.40;;;1.80;;
53519;SDS011;39397;53.204;5.778;2022-09-16T18:24:09;8.52;;;1.67;;
53519;SDS011;39397;53.204;5.778;2022-09-16T18:26:37;11.20;;;1.63;;
53519;SDS011;39397;53.204;5.778;2022-09-16T18:29:04;7.65;;;1.33;;
53519;SDS011;39397;53.204;5.778;2022-09-16T18:31:31;6.60;;;1.60;;
53519;SDS011;39397;53.204;5.778;2022-09-16T18:33:57;9.10;;;1.80;;
53519;SDS011;39397;53.204;5.778;2022-09-16T18:36:23;6.30;;;1.40;;
53519;SDS011;39397;53.204;5.778;2022-09-16T18:38:50;6.10;;;1.25;;